Samara, Russia
Current Conditions -  °F | °C
As of 4:00 PM on Monday 26 Jan 2015 (Local Time) from UWWW Reporting Station
Clear Clear  
Wind Chill: -16°   Ceiling: Unl
Heat Index:   Visibility: 6mi
Dew Point: -6°   Wind: 16mph
Humidity: 66%   Direction: 180°S
Pressure: 30.68"   Gusts: NA
Location:  53.2°N, 50.15°E
Report Text: UWWW 261200Z 18007MPS CAVOK M16/M21 Q1039 23820545 15//99//NOSIG RMK QFE768/1024
Loading
Personal Weather Stations






























Interactive Weather Map New forecast layout! Learn more

10-Day Weather Forecast

Advertisements
Track Severe Weather on mobile